sensor_id;sensor_type;location;lat;lon;timestamp;temperature;humidity
44190;DHT22;29856;52.144;5.430;2022-10-26T00:02:16;11.70;99.90
44190;DHT22;29856;52.144;5.430;2022-10-26T00:04:42;11.70;99.90
44190;DHT22;29856;52.144;5.430;2022-10-26T00:07:07;11.70;99.90
44190;DHT22;29856;52.144;5.430;2022-10-26T00:09:33;11.70;99.90
44190;DHT22;29856;52.144;5.430;2022-10-26T00:12:02;11.70;99.90
44190;DHT22;29856;52.144;5.430;2022-10-26T00:14:28;11.70;99.90
44190;DHT22;29856;52.144;5.430;2022-10-26T00:16:54;11.70;99.90
44190;DHT22;29856;52.144;5.430;2022-10-26T00:19:19;11.70;99.90
44190;DHT22;29856;52.144;5.430;2022-10-26T00:21:45;11.70;99.90
44190;DHT22;29856;52.144;5.430;2022-10-26T00:24:11;11.70;99.90
44190;DHT22;29856;52.144;5.430;2022-10-26T00:26:36;11.70;99.90
44190;DHT22;29856;52.144;5.430;2022-10-26T00:29:02;11.70;99.90
44190;DHT22;29856;52.144;5.430;2022-10-26T00:31:27;11.70;99.90
44190;DHT22;29856;52.144;5.430;2022-10-26T00:33:54;11.70;99.90
44190;DHT22;29856;52.144;5.430;2022-10-26T00:36:21;11.70;99.90
44190;DHT22;29856;52.144;5.430;2022-10-26T00:38:51;11.60;99.90
44190;DHT22;29856;52.144;5.430;2022-10-26T00:41:19;11.60;99.90
44190;DHT22;29856;52.144;5.430;2022-10-26T00:43:45;11.60;99.90
44190;DHT22;29856;52.144;5.430;2022-10-26T00:46:30;11.60;99.90
44190;DHT22;29856;52.144;5.430;2022-10-26T00:49:00;11.60;99.90
44190;DHT22;29856;52.144;5.430;2022-10-26T00:51:35;11.60;99.90
44190;DHT22;29856;52.144;5.430;2022-10-26T00:54:04;11.60;99.90
44190;DHT22;29856;52.144;5.430;2022-10-26T00:56:31;11.60;99.90
44190;DHT22;29856;52.144;5.430;2022-10-26T00:59:01;11.60;99.90
44190;DHT22;29856;52.144;5.430;2022-10-26T01:01:27;11.60;99.90
44190;DHT22;29856;52.144;5.430;2022-10-26T01:03:54;11.60;99.90
44190;DHT22;29856;52.144;5.430;2022-10-26T01:06:20;11.60;99.90
44190;DHT22;29856;52.144;5.430;2022-10-26T01:08:47;11.60;99.90
44190;DHT22;29856;52.144;5.430;2022-10-26T01:11:12;11.60;99.90
44190;DHT22;29856;52.144;5.430;2022-10-26T01:13:38;11.60;99.90
44190;DHT22;29856;52.144;5.430;2022-10-26T01:21:57;11.90;99.90
44190;DHT22;29856;52.144;5.430;2022-10-26T01:27:37;12.00;99.90
44190;DHT22;29856;52.144;5.430;2022-10-26T01:38:24;12.40;99.90
44190;DHT22;29856;52.144;5.430;2022-10-26T01:41:01;12.40;99.90
44190;DHT22;29856;52.144;5.430;2022-10-26T01:43:32;12.40;99.90
44190;DHT22;29856;52.144;5.430;2022-10-26T01:45:59;12.40;99.90
44190;DHT22;29856;52.144;5.430;2022-10-26T01:48:28;12.40;99.90
44190;DHT22;29856;52.144;5.430;2022-10-26T01:50:55;12.30;99.90
44190;DHT22;29856;52.144;5.430;2022-10-26T01:53:21;12.20;99.90
44190;DHT22;29856;52.144;5.430;2022-10-26T01:55:49;12.30;99.90
44190;DHT22;29856;52.144;5.430;2022-10-26T01:58:35;12.40;99.90
44190;DHT22;29856;52.144;5.430;2022-10-26T02:01:14;12.40;99.90
44190;DHT22;29856;52.144;5.430;2022-10-26T02:06:30;12.50;99.90
44190;DHT22;29856;52.144;5.430;2022-10-26T02:09:31;12.50;99.90
44190;DHT22;29856;52.144;5.430;2022-10-26T02:12:01;12.50;99.90
44190;DHT22;29856;52.144;5.430;2022-10-26T02:14:39;12.50;99.90
44190;DHT22;29856;52.144;5.430;2022-10-26T02:19:56;12.60;99.90
44190;DHT22;29856;52.144;5.430;2022-10-26T02:22:28;12.60;99.90
44190;DHT22;29856;52.144;5.430;2022-10-26T02:24:54;12.60;99.90
44190;DHT22;29856;52.144;5.430;2022-10-26T02:27:25;12.60;99.90
44190;DHT22;29856;52.144;5.430;2022-10-26T02:29:53;12.70;99.90
44190;DHT22;29856;52.144;5.430;2022-10-26T02:32:22;12.70;99.90
44190;DHT22;29856;52.144;5.430;2022-10-26T02:34:50;12.70;99.90
44190;DHT22;29856;52.144;5.430;2022-10-26T02:37:19;12.80;99.90
44190;DHT22;29856;52.144;5.430;2022-10-26T02:39:47;12.90;99.90
44190;DHT22;29856;52.144;5.430;2022-10-26T02:42:14;12.70;99.90
44190;DHT22;29856;52.144;5.430;2022-10-26T02:44:49;12.70;99.90
44190;DHT22;29856;52.144;5.430;2022-10-26T02:47:17;12.70;99.90
44190;DHT22;29856;52.144;5.430;2022-10-26T02:49:43;12.80;99.90
44190;DHT22;29856;52.144;5.430;2022-10-26T02:52:47;12.70;99.90
44190;DHT22;29856;52.144;5.430;2022-10-26T02:55:17;12.70;99.90
44190;DHT22;29856;52.144;5.430;2022-10-26T02:57:48;12.70;99.90
44190;DHT22;29856;52.144;5.430;2022-10-26T03:00:16;12.70;99.90
44190;DHT22;29856;52.144;5.430;2022-10-26T03:02:43;12.70;99.90
44190;DHT22;29856;52.144;5.430;2022-10-26T03:05:14;12.70;99.90
44190;DHT22;29856;52.144;5.430;2022-10-26T03:07:42;12.70;99.90
44190;DHT22;29856;52.144;5.430;2022-10-26T03:10:08;12.70;99.90
44190;DHT22;29856;52.144;5.430;2022-10-26T03:12:33;12.70;99.90
44190;DHT22;29856;52.144;5.430;2022-10-26T03:14:59;12.70;99.90
44190;DHT22;29856;52.144;5.430;2022-10-26T03:17:24;12.80;99.90
44190;DHT22;29856;52.144;5.430;2022-10-26T03:19:49;12.80;99.90
44190;DHT22;29856;52.144;5.430;2022-10-26T03:22:15;12.80;99.90
44190;DHT22;29856;52.144;5.430;2022-10-26T03:24:40;12.80;99.90
44190;DHT22;29856;52.144;5.430;2022-10-26T03:27:06;12.90;99.90
44190;DHT22;29856;52.144;5.430;2022-10-26T03:29:31;12.90;99.90
44190;DHT22;29856;52.144;5.430;2022-10-26T03:31:57;13.00;99.90
44190;DHT22;29856;52.144;5.430;2022-10-26T03:34:22;12.90;99.90
44190;DHT22;29856;52.144;5.430;2022-10-26T03:36:48;13.00;99.90
44190;DHT22;29856;52.144;5.430;2022-10-26T03:39:13;13.00;99.90
44190;DHT22;29856;52.144;5.430;2022-10-26T03:41:39;12.90;99.90
44190;DHT22;29856;52.144;5.430;2022-10-26T03:44:04;12.90;99.90
44190;DHT22;29856;52.144;5.430;2022-10-26T03:46:30;13.00;99.90
44190;DHT22;29856;52.144;5.430;2022-10-26T03:48:55;13.10;99.90
44190;DHT22;29856;52.144;5.430;2022-10-26T03:51:20;13.10;99.90
44190;DHT22;29856;52.144;5.430;2022-10-26T03:53:46;13.10;99.90
44190;DHT22;29856;52.144;5.430;2022-10-26T03:56:11;13.10;99.90
44190;DHT22;29856;52.144;5.430;2022-10-26T03:58:37;13.10;99.90
44190;DHT22;29856;52.144;5.430;2022-10-26T04:01:02;13.00;99.90
44190;DHT22;29856;52.144;5.430;2022-10-26T04:03:28;13.00;99.90
44190;DHT22;29856;52.144;5.430;2022-10-26T04:05:53;13.10;99.90
44190;DHT22;29856;52.144;5.430;2022-10-26T04:08:19;13.10;99.90
44190;DHT22;29856;52.144;5.430;2022-10-26T04:10:45;13.10;99.90
44190;DHT22;29856;52.144;5.430;2022-10-26T04:13:10;13.00;99.90
44190;DHT22;29856;52.144;5.430;2022-10-26T04:15:36;13.10;99.90
44190;DHT22;29856;52.144;5.430;2022-10-26T04:18:02;13.10;99.90
44190;DHT22;29856;52.144;5.430;2022-10-26T04:20:28;13.10;99.90
44190;DHT22;29856;52.144;5.430;2022-10-26T04:22:58;13.00;99.90
44190;DHT22;29856;52.144;5.430;2022-10-26T04:25:24;12.90;99.90
44190;DHT22;29856;52.144;5.430;2022-10-26T04:27:50;12.80;99.90
44190;DHT22;29856;52.144;5.430;2022-10-26T04:30:15;12.90;99.90
44190;DHT22;29856;52.144;5.430;2022-10-26T04:32:41;12.80;99.90
44190;DHT22;29856;52.144;5.430;2022-10-26T04:35:06;12.90;99.90
44190;DHT22;29856;52.144;5.430;2022-10-26T04:37:32;12.90;99.90
44190;DHT22;29856;52.144;5.430;2022-10-26T04:39:58;12.80;99.90
44190;DHT22;29856;52.144;5.430;2022-10-26T04:42:23;12.90;99.90
44190;DHT22;29856;52.144;5.430;2022-10-26T04:44:49;12.90;99.90
44190;DHT22;29856;52.144;5.430;2022-10-26T04:47:14;12.90;99.90
44190;DHT22;29856;52.144;5.430;2022-10-26T04:49:39;12.90;99.90
44190;DHT22;29856;52.144;5.430;2022-10-26T04:52:05;12.90;99.90
44190;DHT22;29856;52.144;5.430;2022-10-26T04:54:31;12.90;99.90
44190;DHT22;29856;52.144;5.430;2022-10-26T04:56:56;12.90;99.90
44190;DHT22;29856;52.144;5.430;2022-10-26T04:59:22;12.80;99.90
44190;DHT22;29856;52.144;5.430;2022-10-26T05:01:47;12.80;99.90
44190;DHT22;29856;52.144;5.430;2022-10-26T05:04:13;12.80;99.90
44190;DHT22;29856;52.144;5.430;2022-10-26T05:06:38;12.90;99.90
44190;DHT22;29856;52.144;5.430;2022-10-26T05:09:04;12.90;99.90
44190;DHT22;29856;52.144;5.430;2022-10-26T05:11:29;12.90;99.90
44190;DHT22;29856;52.144;5.430;2022-10-26T05:13:55;12.90;99.90
44190;DHT22;29856;52.144;5.430;2022-10-26T05:16:20;13.00;99.90
44190;DHT22;29856;52.144;5.430;2022-10-26T05:18:48;13.00;99.90
44190;DHT22;29856;52.144;5.430;2022-10-26T05:21:14;13.00;99.90
44190;DHT22;29856;52.144;5.430;2022-10-26T05:23:40;13.00;99.90
44190;DHT22;29856;52.144;5.430;2022-10-26T05:26:05;13.00;99.90
44190;DHT22;29856;52.144;5.430;2022-10-26T05:28:31;12.90;99.90
44190;DHT22;29856;52.144;5.430;2022-10-26T05:30:57;12.90;99.90
44190;DHT22;29856;52.144;5.430;2022-10-26T05:33:23;12.90;99.90
44190;DHT22;29856;52.144;5.430;2022-10-26T05:35:48;12.90;99.90
44190;DHT22;29856;52.144;5.430;2022-10-26T05:38:17;12.90;99.90
44190;DHT22;29856;52.144;5.430;2022-10-26T05:40:47;12.80;99.90
44190;DHT22;29856;52.144;5.430;2022-10-26T05:43:12;12.80;99.90
44190;DHT22;29856;52.144;5.430;2022-10-26T05:45:38;12.80;99.90
44190;DHT22;29856;52.144;5.430;2022-10-26T05:48:04;12.80;99.90
44190;DHT22;29856;52.144;5.430;2022-10-26T05:50:30;12.90;99.90
44190;DHT22;29856;52.144;5.430;2022-10-26T05:52:55;12.80;99.90
44190;DHT22;29856;52.144;5.430;2022-10-26T05:55:21;12.90;99.90
44190;DHT22;29856;52.144;5.430;2022-10-26T05:57:47;12.90;99.90
44190;DHT22;29856;52.144;5.430;2022-10-26T06:00:18;13.00;99.90
44190;DHT22;29856;52.144;5.430;2022-10-26T06:05:21;13.00;99.90
44190;DHT22;29856;52.144;5.430;2022-10-26T06:07:48;13.00;99.90
44190;DHT22;29856;52.144;5.430;2022-10-26T06:10:14;13.00;99.90
44190;DHT22;29856;52.144;5.430;2022-10-26T06:12:40;13.00;99.90
44190;DHT22;29856;52.144;5.430;2022-10-26T06:15:06;13.00;99.90
44190;DHT22;29856;52.144;5.430;2022-10-26T06:23:48;13.00;99.90
44190;DHT22;29856;52.144;5.430;2022-10-26T06:30:09;12.90;99.90
44190;DHT22;29856;52.144;5.430;2022-10-26T06:32:10;12.90;99.90
44190;DHT22;29856;52.144;5.430;2022-10-26T06:34:41;12.90;99.90
44190;DHT22;29856;52.144;5.430;2022-10-26T06:37:09;12.80;99.90
44190;DHT22;29856;52.144;5.430;2022-10-26T06:39:38;12.80;99.90
44190;DHT22;29856;52.144;5.430;2022-10-26T06:42:09;12.80;99.90
44190;DHT22;29856;52.144;5.430;2022-10-26T06:44:35;12.90;99.90
44190;DHT22;29856;52.144;5.430;2022-10-26T06:47:05;12.90;99.90
44190;DHT22;29856;52.144;5.430;2022-10-26T06:49:38;12.90;99.90
44190;DHT22;29856;52.144;5.430;2022-10-26T06:54:51;12.90;99.90
44190;DHT22;29856;52.144;5.430;2022-10-26T06:57:37;12.90;99.90
44190;DHT22;29856;52.144;5.430;2022-10-26T07:00:06;13.00;99.90
44190;DHT22;29856;52.144;5.430;2022-10-26T07:02:32;13.00;99.90
44190;DHT22;29856;52.144;5.430;2022-10-26T07:04:57;13.00;99.90
44190;DHT22;29856;52.144;5.430;2022-10-26T07:07:25;13.00;99.90
44190;DHT22;29856;52.144;5.430;2022-10-26T07:09:51;13.00;99.90
44190;DHT22;29856;52.144;5.430;2022-10-26T07:12:17;13.10;99.90
44190;DHT22;29856;52.144;5.430;2022-10-26T07:14:43;13.10;99.90
44190;DHT22;29856;52.144;5.430;2022-10-26T07:17:09;13.10;99.90
44190;DHT22;29856;52.144;5.430;2022-10-26T07:19:34;13.20;99.90
44190;DHT22;29856;52.144;5.430;2022-10-26T07:21:59;13.30;99.90
44190;DHT22;29856;52.144;5.430;2022-10-26T07:24:25;13.30;99.90
44190;DHT22;29856;52.144;5.430;2022-10-26T07:26:53;13.30;99.90
44190;DHT22;29856;52.144;5.430;2022-10-26T07:29:19;13.40;99.90
44190;DHT22;29856;52.144;5.430;2022-10-26T07:31:45;13.40;99.90
44190;DHT22;29856;52.144;5.430;2022-10-26T07:34:10;13.40;99.90
44190;DHT22;29856;52.144;5.430;2022-10-26T07:36:36;13.40;99.90
44190;DHT22;29856;52.144;5.430;2022-10-26T07:39:07;13.40;99.90
44190;DHT22;29856;52.144;5.430;2022-10-26T07:41:33;13.40;99.90
44190;DHT22;29856;52.144;5.430;2022-10-26T07:43:59;13.40;99.90
44190;DHT22;29856;52.144;5.430;2022-10-26T07:46:25;13.50;99.90
44190;DHT22;29856;52.144;5.430;2022-10-26T07:48:50;13.50;99.90
44190;DHT22;29856;52.144;5.430;2022-10-26T07:51:16;13.50;99.90
44190;DHT22;29856;52.144;5.430;2022-10-26T07:53:42;13.60;99.90
44190;DHT22;29856;52.144;5.430;2022-10-26T07:56:08;13.60;99.90
44190;DHT22;29856;52.144;5.430;2022-10-26T07:58:34;13.70;99.90
44190;DHT22;29856;52.144;5.430;2022-10-26T08:01:26;13.70;99.90
44190;DHT22;29856;52.144;5.430;2022-10-26T08:03:52;13.80;99.90
44190;DHT22;29856;52.144;5.430;2022-10-26T08:06:18;13.80;99.90
44190;DHT22;29856;52.144;5.430;2022-10-26T08:08:44;13.90;99.90
44190;DHT22;29856;52.144;5.430;2022-10-26T08:11:09;13.90;99.90
44190;DHT22;29856;52.144;5.430;2022-10-26T08:13:34;14.00;99.90
44190;DHT22;29856;52.144;5.430;2022-10-26T08:16:02;14.10;99.90
44190;DHT22;29856;52.144;5.430;2022-10-26T08:18:28;14.20;99.90
44190;DHT22;29856;52.144;5.430;2022-10-26T08:20:54;14.20;99.90
44190;DHT22;29856;52.144;5.430;2022-10-26T08:23:20;14.30;99.90
44190;DHT22;29856;52.144;5.430;2022-10-26T08:25:46;14.40;99.90
44190;DHT22;29856;52.144;5.430;2022-10-26T08:28:12;14.50;99.90
44190;DHT22;29856;52.144;5.430;2022-10-26T08:30:37;14.50;99.90
44190;DHT22;29856;52.144;5.430;2022-10-26T08:33:05;14.60;99.90
44190;DHT22;29856;52.144;5.430;2022-10-26T08:35:31;14.70;99.90
44190;DHT22;29856;52.144;5.430;2022-10-26T08:37:57;14.80;99.90
44190;DHT22;29856;52.144;5.430;2022-10-26T08:40:32;14.90;99.90
44190;DHT22;29856;52.144;5.430;2022-10-26T08:43:04;15.00;99.90
44190;DHT22;29856;52.144;5.430;2022-10-26T08:45:40;15.10;99.90
44190;DHT22;29856;52.144;5.430;2022-10-26T08:48:15;15.20;99.90
44190;DHT22;29856;52.144;5.430;2022-10-26T08:50:47;15.30;99.90
44190;DHT22;29856;52.144;5.430;2022-10-26T08:53:41;15.40;99.90
44190;DHT22;29856;52.144;5.430;2022-10-26T08:56:19;15.40;99.90
44190;DHT22;29856;52.144;5.430;2022-10-26T08:58:51;15.50;99.90
44190;DHT22;29856;52.144;5.430;2022-10-26T09:01:18;15.50;99.90
44190;DHT22;29856;52.144;5.430;2022-10-26T09:03:44;15.60;99.90
44190;DHT22;29856;52.144;5.430;2022-10-26T09:08:46;15.70;99.90
44190;DHT22;29856;52.144;5.430;2022-10-26T09:19:04;16.00;99.90
44190;DHT22;29856;52.144;5.430;2022-10-26T09:21:37;16.10;99.90
44190;DHT22;29856;52.144;5.430;2022-10-26T09:24:19;16.20;99.90
44190;DHT22;29856;52.144;5.430;2022-10-26T09:27:17;16.40;99.90
44190;DHT22;29856;52.144;5.430;2022-10-26T09:29:44;16.50;99.90
44190;DHT22;29856;52.144;5.430;2022-10-26T09:32:20;16.60;99.90
44190;DHT22;29856;52.144;5.430;2022-10-26T09:35:04;16.70;99.90
44190;DHT22;29856;52.144;5.430;2022-10-26T09:37:38;16.80;99.90
44190;DHT22;29856;52.144;5.430;2022-10-26T09:40:19;16.90;99.90
44190;DHT22;29856;52.144;5.430;2022-10-26T09:45:31;17.00;99.90
44190;DHT22;29856;52.144;5.430;2022-10-26T09:48:16;17.00;99.90
44190;DHT22;29856;52.144;5.430;2022-10-26T09:50:46;17.10;99.90
44190;DHT22;29856;52.144;5.430;2022-10-26T09:53:12;17.10;99.90
44190;DHT22;29856;52.144;5.430;2022-10-26T09:55:44;17.20;99.90
44190;DHT22;29856;52.144;5.430;2022-10-26T09:58:16;17.20;99.90
44190;DHT22;29856;52.144;5.430;2022-10-26T10:00:45;17.30;99.90
44190;DHT22;29856;52.144;5.430;2022-10-26T10:03:36;17.30;99.90
44190;DHT22;29856;52.144;5.430;2022-10-26T10:06:19;17.30;99.90
44190;DHT22;29856;52.144;5.430;2022-10-26T10:14:08;17.60;99.90
44190;DHT22;29856;52.144;5.430;2022-10-26T10:16:37;17.70;99.90
44190;DHT22;29856;52.144;5.430;2022-10-26T10:19:03;17.70;99.90
44190;DHT22;29856;52.144;5.430;2022-10-26T10:21:39;17.80;99.90
44190;DHT22;29856;52.144;5.430;2022-10-26T10:24:32;17.90;99.90
44190;DHT22;29856;52.144;5.430;2022-10-26T10:29:26;18.10;99.90
44190;DHT22;29856;52.144;5.430;2022-10-26T10:31:57;18.20;99.90
44190;DHT22;29856;52.144;5.430;2022-10-26T10:34:23;18.20;99.90
44190;DHT22;29856;52.144;5.430;2022-10-26T10:36:49;18.30;99.90
44190;DHT22;29856;52.144;5.430;2022-10-26T10:39:40;18.40;99.90
44190;DHT22;29856;52.144;5.430;2022-10-26T10:42:17;18.40;99.90
44190;DHT22;29856;52.144;5.430;2022-10-26T10:44:46;18.60;99.90
44190;DHT22;29856;52.144;5.430;2022-10-26T10:47:33;18.60;99.90
44190;DHT22;29856;52.144;5.430;2022-10-26T10:50:06;18.60;99.90
44190;DHT22;29856;52.144;5.430;2022-10-26T10:52:34;18.60;99.90
44190;DHT22;29856;52.144;5.430;2022-10-26T10:55:19;18.70;99.90
44190;DHT22;29856;52.144;5.430;2022-10-26T11:00:42;18.80;99.90
44190;DHT22;29856;52.144;5.430;2022-10-26T11:06:24;18.80;99.90
44190;DHT22;29856;52.144;5.430;2022-10-26T11:08:56;18.80;99.90
44190;DHT22;29856;52.144;5.430;2022-10-26T11:11:32;18.90;99.90
44190;DHT22;29856;52.144;5.430;2022-10-26T11:14:13;18.80;99.90
44190;DHT22;29856;52.144;5.430;2022-10-26T11:16:47;18.80;99.90
44190;DHT22;29856;52.144;5.430;2022-10-26T11:19:41;18.80;99.90
44190;DHT22;29856;52.144;5.430;2022-10-26T11:22:12;18.70;99.90
44190;DHT22;29856;52.144;5.430;2022-10-26T11:24:43;18.70;99.90
44190;DHT22;29856;52.144;5.430;2022-10-26T11:27:19;18.70;99.90
44190;DHT22;29856;52.144;5.430;2022-10-26T11:29:53;18.70;99.90
44190;DHT22;29856;52.144;5.430;2022-10-26T11:37:48;18.60;99.90
44190;DHT22;29856;52.144;5.430;2022-10-26T11:43:22;18.50;99.90
44190;DHT22;29856;52.144;5.430;2022-10-26T11:46:22;18.50;99.90
44190;DHT22;29856;52.144;5.430;2022-10-26T11:49:12;18.50;99.90
44190;DHT22;29856;52.144;5.430;2022-10-26T11:51:48;18.40;99.90
44190;DHT22;29856;52.144;5.430;2022-10-26T11:54:37;18.40;99.90
44190;DHT22;29856;52.144;5.430;2022-10-26T11:57:04;18.50;99.90
44190;DHT22;29856;52.144;5.430;2022-10-26T11:59:36;18.50;99.90
44190;DHT22;29856;52.144;5.430;2022-10-26T12:02:18;18.60;99.90
44190;DHT22;29856;52.144;5.430;2022-10-26T12:04:48;18.80;99.90
44190;DHT22;29856;52.144;5.430;2022-10-26T12:07:30;19.00;99.90
44190;DHT22;29856;52.144;5.430;2022-10-26T12:09:56;19.10;99.90
44190;DHT22;29856;52.144;5.430;2022-10-26T12:12:45;19.10;99.90
44190;DHT22;29856;52.144;5.430;2022-10-26T12:15:25;19.00;99.90
44190;DHT22;29856;52.144;5.430;2022-10-26T12:17:54;19.00;99.90
44190;DHT22;29856;52.144;5.430;2022-10-26T12:23:11;19.20;99.90
44190;DHT22;29856;52.144;5.430;2022-10-26T12:25:36;19.30;99.90
44190;DHT22;29856;52.144;5.430;2022-10-26T12:28:02;19.30;99.90
44190;DHT22;29856;52.144;5.430;2022-10-26T12:30:30;19.30;99.90
44190;DHT22;29856;52.144;5.430;2022-10-26T12:32:57;19.30;99.90
44190;DHT22;29856;52.144;5.430;2022-10-26T12:48:46;19.50;99.90
44190;DHT22;29856;52.144;5.430;2022-10-26T12:59:03;19.60;99.90
44190;DHT22;29856;52.144;5.430;2022-10-26T13:07:23;19.90;99.90
44190;DHT22;29856;52.144;5.430;2022-10-26T13:12:22;20.00;99.90
44190;DHT22;29856;52.144;5.430;2022-10-26T13:15:04;20.10;99.90
44190;DHT22;29856;52.144;5.430;2022-10-26T13:17:31;20.10;99.90
44190;DHT22;29856;52.144;5.430;2022-10-26T13:20:05;20.20;99.90
44190;DHT22;29856;52.144;5.430;2022-10-26T13:22:31;20.30;99.90
44190;DHT22;29856;52.144;5.430;2022-10-26T13:25:00;20.30;99.90
44190;DHT22;29856;52.144;5.430;2022-10-26T13:32:32;20.50;99.90
44190;DHT22;29856;52.144;5.430;2022-10-26T13:34:59;20.50;99.90
44190;DHT22;29856;52.144;5.430;2022-10-26T13:37:27;20.60;99.90
44190;DHT22;29856;52.144;5.430;2022-10-26T13:39:55;20.70;99.90
44190;DHT22;29856;52.144;5.430;2022-10-26T13:42:25;20.60;99.90
44190;DHT22;29856;52.144;5.430;2022-10-26T13:45:10;20.70;99.90
44190;DHT22;29856;52.144;5.430;2022-10-26T13:47:54;20.70;99.90
44190;DHT22;29856;52.144;5.430;2022-10-26T13:50:28;20.70;99.90
44190;DHT22;29856;52.144;5.430;2022-10-26T13:53:00;20.60;99.90
44190;DHT22;29856;52.144;5.430;2022-10-26T13:55:35;20.70;99.90
44190;DHT22;29856;52.144;5.430;2022-10-26T13:58:40;20.70;99.90
44190;DHT22;29856;52.144;5.430;2022-10-26T14:01:16;20.80;99.90
44190;DHT22;29856;52.144;5.430;2022-10-26T14:03:43;20.70;99.90
44190;DHT22;29856;52.144;5.430;2022-10-26T14:08:47;20.80;99.90
44190;DHT22;29856;52.144;5.430;2022-10-26T14:11:16;20.80;99.90
44190;DHT22;29856;52.144;5.430;2022-10-26T14:13:42;20.80;99.90
44190;DHT22;29856;52.144;5.430;2022-10-26T14:16:09;20.80;99.90
44190;DHT22;29856;52.144;5.430;2022-10-26T14:18:36;20.80;99.90
44190;DHT22;29856;52.144;5.430;2022-10-26T14:21:14;20.70;99.90
44190;DHT22;29856;52.144;5.430;2022-10-26T14:23:55;20.70;99.90
44190;DHT22;29856;52.144;5.430;2022-10-26T14:26:22;20.80;99.90
44190;DHT22;29856;52.144;5.430;2022-10-26T14:28:51;20.70;99.90
44190;DHT22;29856;52.144;5.430;2022-10-26T14:31:28;20.70;99.90
44190;DHT22;29856;52.144;5.430;2022-10-26T14:33:57;20.70;99.90
44190;DHT22;29856;52.144;5.430;2022-10-26T14:39:14;20.80;99.90
44190;DHT22;29856;52.144;5.430;2022-10-26T14:41:41;20.70;99.90
44190;DHT22;29856;52.144;5.430;2022-10-26T14:44:16;20.70;99.90
44190;DHT22;29856;52.144;5.430;2022-10-26T14:46:43;20.70;99.90
44190;DHT22;29856;52.144;5.430;2022-10-26T14:49:22;20.70;99.90
44190;DHT22;29856;52.144;5.430;2022-10-26T14:51:56;20.70;99.90
44190;DHT22;29856;52.144;5.430;2022-10-26T14:54:23;20.70;99.90
44190;DHT22;29856;52.144;5.430;2022-10-26T14:56:49;20.80;99.90
44190;DHT22;29856;52.144;5.430;2022-10-26T14:59:26;20.80;99.90
44190;DHT22;29856;52.144;5.430;2022-10-26T15:09:42;20.50;99.90
44190;DHT22;29856;52.144;5.430;2022-10-26T15:12:32;20.50;99.90
44190;DHT22;29856;52.144;5.430;2022-10-26T15:15:17;20.40;99.90
44190;DHT22;29856;52.144;5.430;2022-10-26T15:17:54;20.40;99.90
44190;DHT22;29856;52.144;5.430;2022-10-26T15:20:22;20.40;99.90
44190;DHT22;29856;52.144;5.430;2022-10-26T15:22:51;20.40;99.90
44190;DHT22;29856;52.144;5.430;2022-10-26T15:25:20;20.30;99.90
44190;DHT22;29856;52.144;5.430;2022-10-26T15:27:47;20.30;99.90
44190;DHT22;29856;52.144;5.430;2022-10-26T15:32:43;20.20;99.90
44190;DHT22;29856;52.144;5.430;2022-10-26T15:37:48;20.20;99.90
44190;DHT22;29856;52.144;5.430;2022-10-26T15:40:14;20.10;99.90
44190;DHT22;29856;52.144;5.430;2022-10-26T15:42:40;20.20;99.90
44190;DHT22;29856;52.144;5.430;2022-10-26T15:45:16;20.10;99.90
44190;DHT22;29856;52.144;5.430;2022-10-26T15:47:42;20.10;99.90
44190;DHT22;29856;52.144;5.430;2022-10-26T15:50:14;20.10;99.90
44190;DHT22;29856;52.144;5.430;2022-10-26T15:52:40;20.00;99.90
44190;DHT22;29856;52.144;5.430;2022-10-26T15:55:06;20.00;99.90
44190;DHT22;29856;52.144;5.430;2022-10-26T15:57:31;19.90;99.90
44190;DHT22;29856;52.144;5.430;2022-10-26T15:59:57;19.90;99.90
44190;DHT22;29856;52.144;5.430;2022-10-26T16:02:22;19.90;99.90
44190;DHT22;29856;52.144;5.430;2022-10-26T16:04:48;19.80;99.90
44190;DHT22;29856;52.144;5.430;2022-10-26T16:07:14;19.80;99.90
44190;DHT22;29856;52.144;5.430;2022-10-26T16:09:41;19.70;99.90
44190;DHT22;29856;52.144;5.430;2022-10-26T16:12:11;19.70;99.90
44190;DHT22;29856;52.144;5.430;2022-10-26T16:14:37;19.70;99.90
44190;DHT22;29856;52.144;5.430;2022-10-26T16:17:04;19.70;99.90
44190;DHT22;29856;52.144;5.430;2022-10-26T16:19:30;19.60;99.90
44190;DHT22;29856;52.144;5.430;2022-10-26T16:21:55;19.50;99.90
44190;DHT22;29856;52.144;5.430;2022-10-26T16:24:22;19.50;99.90
44190;DHT22;29856;52.144;5.430;2022-10-26T16:26:47;19.50;99.90
44190;DHT22;29856;52.144;5.430;2022-10-26T16:29:13;19.50;99.90
44190;DHT22;29856;52.144;5.430;2022-10-26T16:31:45;19.50;99.90
44190;DHT22;29856;52.144;5.430;2022-10-26T16:34:16;19.50;99.90
44190;DHT22;29856;52.144;5.430;2022-10-26T16:36:41;19.50;99.90
44190;DHT22;29856;52.144;5.430;2022-10-26T16:39:10;19.50;99.90
44190;DHT22;29856;52.144;5.430;2022-10-26T16:41:36;19.40;99.90
44190;DHT22;29856;52.144;5.430;2022-10-26T16:44:01;19.30;99.90
44190;DHT22;29856;52.144;5.430;2022-10-26T16:46:27;19.30;99.90
44190;DHT22;29856;52.144;5.430;2022-10-26T16:48:54;19.30;99.90
44190;DHT22;29856;52.144;5.430;2022-10-26T16:51:25;19.30;99.90
44190;DHT22;29856;52.144;5.430;2022-10-26T16:53:52;19.20;99.90
44190;DHT22;29856;52.144;5.430;2022-10-26T16:56:20;19.10;99.90
44190;DHT22;29856;52.144;5.430;2022-10-26T16:58:46;19.10;99.90
44190;DHT22;29856;52.144;5.430;2022-10-26T17:01:14;19.00;99.90
44190;DHT22;29856;52.144;5.430;2022-10-26T17:03:40;18.90;99.90
44190;DHT22;29856;52.144;5.430;2022-10-26T17:06:07;18.90;99.90
44190;DHT22;29856;52.144;5.430;2022-10-26T17:08:34;18.90;99.90
44190;DHT22;29856;52.144;5.430;2022-10-26T17:13:28;18.80;99.90
44190;DHT22;29856;52.144;5.430;2022-10-26T17:15:53;18.80;99.90
44190;DHT22;29856;52.144;5.430;2022-10-26T17:18:19;18.70;99.90
44190;DHT22;29856;52.144;5.430;2022-10-26T17:20:48;18.70;99.90
44190;DHT22;29856;52.144;5.430;2022-10-26T17:23:14;18.60;99.90
44190;DHT22;29856;52.144;5.430;2022-10-26T17:25:40;18.60;99.90
44190;DHT22;29856;52.144;5.430;2022-10-26T17:28:05;18.60;99.90
44190;DHT22;29856;52.144;5.430;2022-10-26T17:30:32;18.60;99.90
44190;DHT22;29856;52.144;5.430;2022-10-26T17:32:57;18.60;99.90
44190;DHT22;29856;52.144;5.430;2022-10-26T17:35:23;18.50;99.90
44190;DHT22;29856;52.144;5.430;2022-10-26T17:37:48;18.50;99.90
44190;DHT22;29856;52.144;5.430;2022-10-26T17:40:14;18.50;99.90
44190;DHT22;29856;52.144;5.430;2022-10-26T17:42:39;18.40;99.90
44190;DHT22;29856;52.144;5.430;2022-10-26T17:45:05;18.40;99.90
44190;DHT22;29856;52.144;5.430;2022-10-26T17:47:31;18.40;99.90
44190;DHT22;29856;52.144;5.430;2022-10-26T17:49:56;18.30;99.90
44190;DHT22;29856;52.144;5.430;2022-10-26T17:52:22;18.30;99.90
44190;DHT22;29856;52.144;5.430;2022-10-26T17:54:49;18.20;99.90
44190;DHT22;29856;52.144;5.430;2022-10-26T17:57:14;18.20;99.90